createdAt,value
2023-05-10T00:01:39.903Z,81.30
2023-05-10T00:04:07.452Z,81.50
2023-05-10T00:06:34.776Z,81.60
2023-05-10T00:09:02.236Z,81.70
2023-05-10T00:11:29.464Z,81.90
2023-05-10T00:13:57.328Z,82.10
2023-05-10T00:16:25.178Z,82.20
2023-05-10T00:18:52.452Z,82.30
2023-05-10T00:21:19.789Z,82.30
2023-05-10T00:23:47.472Z,82.50
2023-05-10T00:26:14.914Z,82.60
2023-05-10T00:28:42.194Z,82.90
2023-05-10T00:31:09.946Z,83.10
2023-05-10T00:33:38.253Z,83.20
2023-05-10T00:36:08.873Z,83.40
2023-05-10T00:38:36.217Z,83.60
2023-05-10T00:41:03.732Z,83.80
2023-05-10T00:43:31.030Z,84.10
2023-05-10T00:45:58.679Z,84.30
2023-05-10T00:48:26.746Z,84.40
2023-05-10T00:50:54.029Z,84.60
2023-05-10T00:53:21.413Z,84.80
2023-05-10T00:55:49.080Z,84.90
2023-05-10T00:58:16.916Z,85.10
2023-05-10T01:00:47.498Z,85.30
2023-05-10T01:03:15.906Z,85.30
2023-05-10T01:05:46.475Z,85.40
2023-05-10T01:08:13.846Z,85.40
2023-05-10T01:10:42.262Z,85.70
2023-05-10T01:13:09.477Z,86.00
2023-05-10T01:15:38.130Z,86.10
2023-05-10T01:18:05.950Z,86.10
2023-05-10T01:20:41.335Z,86.40
2023-05-10T01:23:08.680Z,86.70
2023-05-10T01:25:54.875Z,86.60
2023-05-10T01:28:53.331Z,86.70
2023-05-10T01:31:51.022Z,86.80
2023-05-10T01:34:22.347Z,87.00
2023-05-10T01:36:57.077Z,87.10
2023-05-10T01:39:31.378Z,87.50
2023-05-10T01:42:11.689Z,87.70
2023-05-10T01:44:53.164Z,88.00
2023-05-10T01:47:38.594Z,88.10
2023-05-10T01:50:11.559Z,88.20
2023-05-10T01:52:44.935Z,88.30
2023-05-10T01:55:18.634Z,88.50
2023-05-10T01:57:49.686Z,88.70
2023-05-10T02:00:18.834Z,88.90
2023-05-10T02:02:49.170Z,89.10
2023-05-10T02:05:19.778Z,89.20
2023-05-10T02:07:47.586Z,89.50
2023-05-10T02:10:15.777Z,89.60
2023-05-10T02:12:46.292Z,89.80
2023-05-10T02:15:16.975Z,90.00
2023-05-10T02:17:44.900Z,90.10
2023-05-10T02:20:14.269Z,90.20
2023-05-10T02:22:43.188Z,90.30
2023-05-10T02:25:12.383Z,90.50
2023-05-10T02:27:42.562Z,90.60
2023-05-10T02:30:11.402Z,90.70
2023-05-10T02:32:39.326Z,90.80
2023-05-10T02:35:07.424Z,90.90
2023-05-10T02:37:35.966Z,91.00
2023-05-10T02:40:04.764Z,91.00
2023-05-10T02:42:37.337Z,91.20
2023-05-10T02:45:09.785Z,91.30
2023-05-10T02:47:37.284Z,91.60
2023-05-10T02:50:05.615Z,91.40
2023-05-10T02:52:41.341Z,91.50
2023-05-10T02:55:11.256Z,91.60
2023-05-10T02:57:42.769Z,91.60
2023-05-10T03:00:10.527Z,91.70
2023-05-10T03:02:38.034Z,91.80
2023-05-10T03:05:05.704Z,92.00
2023-05-10T03:07:34.505Z,92.20
2023-05-10T03:10:03.069Z,92.70
2023-05-10T03:12:49.109Z,92.60
2023-05-10T03:15:55.075Z,92.70
2023-05-10T03:18:33.337Z,92.90
2023-05-10T03:21:07.574Z,93.00
2023-05-10T03:23:44.993Z,93.20
2023-05-10T03:26:18.888Z,93.20
2023-05-10T03:28:49.011Z,93.20
2023-05-10T03:31:16.695Z,93.30
2023-05-10T03:33:51.508Z,93.30
2023-05-10T03:36:19.170Z,93.50
2023-05-10T03:38:46.720Z,93.50
2023-05-10T03:41:14.169Z,93.60
2023-05-10T03:43:42.387Z,93.70
2023-05-10T03:46:09.810Z,93.80
2023-05-10T03:48:37.140Z,93.90
2023-05-10T03:51:04.904Z,93.90
2023-05-10T03:53:32.826Z,94.10
2023-05-10T03:56:00.024Z,94.50
2023-05-10T03:58:27.223Z,94.30
2023-05-10T04:00:55.176Z,94.40
2023-05-10T04:03:22.385Z,94.50
2023-05-10T04:05:50.052Z,94.60
2023-05-10T04:08:17.812Z,94.70
2023-05-10T04:10:45.496Z,94.80
2023-05-10T04:13:12.709Z,94.90
2023-05-10T04:15:39.926Z,95.00
2023-05-10T04:18:08.804Z,95.10
2023-05-10T04:20:36.339Z,95.20
2023-05-10T04:23:03.658Z,95.30
2023-05-10T04:25:30.919Z,95.50
2023-05-10T04:27:58.299Z,95.60
2023-05-10T04:30:25.624Z,95.80
2023-05-10T04:32:52.972Z,95.90
2023-05-10T04:35:20.339Z,96.00
2023-05-10T04:37:48.311Z,96.20
2023-05-10T04:40:15.864Z,96.30
2023-05-10T04:42:43.278Z,96.40
2023-05-10T04:45:10.980Z,96.50
2023-05-10T04:47:38.476Z,96.60
2023-05-10T04:50:06.495Z,96.60
2023-05-10T04:52:33.910Z,96.60
2023-05-10T04:55:01.289Z,96.80
2023-05-10T04:57:28.861Z,96.80
2023-05-10T04:59:57.939Z,97.00
2023-05-10T05:02:25.243Z,97.00
2023-05-10T05:04:52.481Z,97.10
2023-05-10T05:07:19.779Z,97.20
2023-05-10T05:09:47.590Z,97.30
2023-05-10T05:12:15.477Z,97.40
2023-05-10T05:14:43.060Z,97.40
2023-05-10T05:17:10.159Z,97.50
2023-05-10T05:19:38.246Z,97.60
2023-05-10T05:22:07.759Z,97.90
2023-05-10T05:24:41.198Z,97.90
2023-05-10T05:27:08.895Z,98.10
2023-05-10T05:29:36.273Z,98.20
2023-05-10T05:32:03.946Z,98.30
2023-05-10T05:34:31.208Z,98.40
2023-05-10T05:36:58.967Z,98.40
2023-05-10T05:39:26.107Z,98.40
2023-05-10T05:41:53.525Z,98.30
2023-05-10T05:44:20.722Z,98.40
2023-05-10T05:46:48.235Z,98.50
2023-05-10T05:49:15.538Z,98.50
2023-05-10T05:51:42.592Z,98.40
2023-05-10T05:54:09.937Z,98.30
2023-05-10T05:56:37.073Z,98.20
2023-05-10T05:59:05.183Z,98.10
2023-05-10T06:01:32.905Z,98.20
2023-05-10T06:04:00.240Z,98.10
2023-05-10T06:06:28.096Z,98.10
2023-05-10T06:08:55.421Z,98.30
2023-05-10T06:11:23.228Z,97.80
2023-05-10T06:13:50.640Z,97.80
2023-05-10T06:16:19.076Z,97.70
2023-05-10T06:18:46.441Z,97.50
2023-05-10T06:21:13.682Z,97.40
2023-05-10T06:23:40.933Z,97.20
2023-05-10T06:26:08.134Z,97.10
2023-05-10T06:28:35.395Z,97.10
2023-05-10T06:31:02.777Z,97.20
2023-05-10T06:33:30.080Z,96.90
2023-05-10T06:35:57.375Z,96.50
2023-05-10T06:38:24.643Z,96.20
2023-05-10T06:40:53.271Z,96.10
2023-05-10T06:43:20.557Z,96.00
2023-05-10T06:45:48.905Z,95.90
2023-05-10T06:48:17.355Z,95.80
2023-05-10T06:50:45.352Z,95.80
2023-05-10T06:53:13.315Z,95.70
2023-05-10T06:55:40.892Z,95.60
2023-05-10T06:58:08.499Z,95.60
2023-05-10T07:00:35.839Z,95.50
2023-05-10T07:03:02.953Z,95.30
2023-05-10T07:05:30.844Z,95.40
2023-05-10T07:07:58.814Z,95.40
2023-05-10T07:10:25.987Z,95.40
2023-05-10T07:12:53.735Z,95.40
2023-05-10T07:15:21.144Z,95.40
2023-05-10T07:17:48.160Z,95.30
2023-05-10T07:20:15.850Z,95.40
2023-05-10T07:22:43.646Z,95.40
2023-05-10T07:25:11.094Z,95.30
2023-05-10T07:27:38.127Z,95.20
2023-05-10T07:30:06.074Z,95.20
2023-05-10T07:32:33.334Z,95.10
2023-05-10T07:35:00.781Z,95.10
2023-05-10T07:37:27.991Z,95.20
2023-05-10T07:39:55.222Z,95.20
2023-05-10T07:42:22.654Z,95.40
2023-05-10T07:44:49.880Z,95.30
2023-05-10T07:47:17.045Z,95.20
2023-05-10T07:49:44.735Z,95.20
2023-05-10T07:52:12.389Z,95.10
2023-05-10T07:54:39.479Z,95.00
2023-05-10T07:57:07.596Z,95.00
2023-05-10T07:59:34.666Z,95.00
2023-05-10T08:02:01.958Z,95.00
2023-05-10T08:04:29.192Z,95.20
2023-05-10T08:06:56.258Z,95.30
2023-05-10T08:09:25.348Z,95.50
2023-05-10T08:11:53.036Z,95.50
2023-05-10T08:14:20.249Z,95.40
2023-05-10T08:16:48.493Z,95.40
2023-05-10T08:19:20.604Z,95.20
2023-05-10T08:21:48.024Z,95.30
2023-05-10T08:24:17.245Z,95.30
2023-05-10T08:26:44.369Z,95.40
2023-05-10T08:29:11.808Z,95.40
2023-05-10T08:31:39.190Z,95.40
2023-05-10T08:34:06.624Z,95.10
2023-05-10T08:36:33.873Z,94.80
2023-05-10T08:39:01.225Z,94.60
2023-05-10T08:41:28.993Z,94.30
2023-05-10T08:43:56.336Z,94.00
2023-05-10T08:46:24.659Z,94.00
2023-05-10T08:48:53.441Z,93.80
2023-05-10T08:51:23.979Z,93.40
2023-05-10T08:53:51.262Z,93.10
2023-05-10T08:56:19.111Z,93.00
2023-05-10T08:58:47.140Z,92.90
2023-05-10T09:01:16.762Z,92.70
2023-05-10T09:03:44.559Z,92.50
2023-05-10T09:06:14.922Z,92.60
2023-05-10T09:08:44.041Z,92.70
2023-05-10T09:11:13.952Z,92.60
2023-05-10T09:13:41.530Z,92.40
2023-05-10T09:16:20.366Z,92.60
2023-05-10T09:18:48.866Z,92.50
2023-05-10T09:21:16.650Z,92.40
2023-05-10T09:23:48.630Z,92.40
2023-05-10T09:26:16.426Z,92.30
2023-05-10T09:28:59.727Z,92.10
2023-05-10T09:31:52.516Z,91.80
2023-05-10T09:34:21.521Z,91.40
2023-05-10T09:36:56.367Z,91.10
2023-05-10T09:39:35.558Z,90.90
2023-05-10T09:42:11.838Z,90.60
2023-05-10T09:44:39.570Z,90.70
2023-05-10T09:47:07.131Z,91.00
2023-05-10T09:49:34.531Z,91.10
2023-05-10T09:52:02.736Z,91.10
2023-05-10T09:54:33.466Z,90.90
2023-05-10T09:57:01.155Z,90.70
2023-05-10T09:59:29.246Z,90.80
2023-05-10T10:02:01.223Z,90.90
2023-05-10T10:04:29.317Z,90.70
2023-05-10T10:07:05.104Z,90.60
2023-05-10T10:09:33.822Z,90.50
2023-05-10T10:12:05.055Z,90.50
2023-05-10T10:14:32.355Z,90.60
2023-05-10T10:19:37.613Z,90.70
2023-05-10T10:22:06.215Z,90.70
2023-05-10T10:24:33.641Z,90.70
2023-05-10T10:27:13.059Z,90.70
2023-05-10T10:30:09.710Z,90.40
2023-05-10T10:33:10.154Z,90.30
2023-05-10T10:35:46.825Z,90.20
2023-05-10T10:38:14.953Z,90.20
2023-05-10T10:40:42.270Z,90.10
2023-05-10T10:43:29.754Z,90.20
2023-05-10T10:46:15.261Z,90.20
2023-05-10T10:48:48.885Z,90.30
2023-05-10T10:51:16.541Z,90.20
2023-05-10T10:53:44.875Z,90.00
2023-05-10T10:56:14.926Z,89.80
2023-05-10T10:58:50.530Z,89.40
2023-05-10T11:01:21.788Z,89.30
2023-05-10T11:04:04.601Z,89.20
2023-05-10T11:06:36.775Z,89.10
2023-05-10T11:09:09.763Z,89.50
2023-05-10T11:11:57.340Z,90.00
2023-05-10T11:14:24.980Z,90.40
2023-05-10T11:16:52.427Z,90.50
2023-05-10T11:19:21.655Z,90.70
2023-05-10T11:22:04.944Z,90.90
2023-05-10T11:24:32.292Z,91.00
2023-05-10T11:26:59.552Z,91.20
2023-05-10T11:29:27.844Z,91.20
2023-05-10T11:31:59.310Z,91.20
2023-05-10T11:34:28.395Z,91.10
2023-05-10T11:36:57.000Z,91.00
2023-05-10T11:39:34.675Z,91.00
2023-05-10T11:42:01.838Z,91.10
2023-05-10T11:44:33.846Z,91.10
2023-05-10T11:47:02.299Z,91.40
2023-05-10T11:49:31.047Z,91.40
2023-05-10T11:52:08.645Z,91.50
2023-05-10T11:54:38.882Z,91.70
2023-05-10T11:57:07.308Z,91.90
2023-05-10T11:59:34.680Z,92.10
2023-05-10T12:02:02.130Z,92.30
2023-05-10T12:04:30.841Z,92.60
2023-05-10T12:06:58.056Z,92.90
2023-05-10T12:09:39.463Z,93.20
2023-05-10T12:12:10.681Z,93.40
2023-05-10T12:14:38.713Z,93.80
2023-05-10T12:17:06.057Z,94.40
2023-05-10T12:19:40.342Z,95.20
2023-05-10T12:22:08.041Z,96.10
2023-05-10T12:24:36.743Z,96.40
2023-05-10T12:29:54.761Z,97.70
2023-05-10T12:32:21.921Z,98.20
2023-05-10T12:34:49.247Z,98.70
2023-05-10T12:37:16.499Z,99.40
2023-05-10T12:39:45.372Z,99.90
2023-05-10T12:42:12.932Z,99.90
2023-05-10T12:44:41.238Z,99.90
2023-05-10T12:47:08.833Z,99.90
2023-05-10T12:49:35.926Z,99.90
2023-05-10T12:52:03.097Z,99.90
2023-05-10T12:54:30.340Z,99.90
2023-05-10T12:56:57.446Z,99.90
2023-05-10T12:59:24.532Z,99.90
2023-05-10T13:01:51.884Z,99.90
2023-05-10T13:04:18.992Z,99.90
2023-05-10T13:06:46.258Z,99.90
2023-05-10T13:09:13.403Z,99.90
2023-05-10T13:11:40.917Z,99.90
2023-05-10T13:14:08.090Z,99.90
2023-05-10T13:16:35.624Z,99.90
2023-05-10T13:19:02.999Z,99.90
2023-05-10T13:21:30.152Z,99.90
2023-05-10T13:23:57.321Z,99.90
2023-05-10T13:26:24.510Z,99.90
2023-05-10T13:28:52.973Z,99.90
2023-05-10T13:31:20.127Z,99.90
2023-05-10T13:33:47.341Z,99.90
2023-05-10T13:36:14.615Z,99.90
2023-05-10T13:38:41.953Z,99.90
2023-05-10T13:41:09.439Z,99.90
2023-05-10T13:43:37.206Z,99.90
2023-05-10T13:46:04.352Z,99.90
2023-05-10T13:48:31.649Z,99.90
2023-05-10T13:50:59.032Z,99.90
2023-05-10T13:53:26.138Z,99.90
2023-05-10T13:55:53.367Z,99.90
2023-05-10T13:58:20.833Z,99.90
2023-05-10T14:00:48.031Z,99.90
2023-05-10T14:03:15.311Z,99.90
2023-05-10T14:05:42.605Z,99.90
2023-05-10T14:08:11.031Z,99.90
2023-05-10T14:10:39.248Z,99.90
2023-05-10T14:13:06.884Z,99.90
2023-05-10T14:15:34.161Z,99.90
2023-05-10T14:18:01.662Z,99.90
2023-05-10T14:20:28.888Z,99.90
2023-05-10T14:22:56.033Z,99.90
2023-05-10T14:25:23.141Z,99.90
2023-05-10T14:27:50.201Z,99.90
2023-05-10T14:30:17.669Z,99.90
2023-05-10T14:32:44.835Z,99.90
2023-05-10T14:35:13.361Z,99.90
2023-05-10T14:37:40.679Z,99.90
2023-05-10T14:40:08.510Z,99.90
2023-05-10T14:42:36.105Z,99.90
2023-05-10T14:45:06.824Z,99.90
2023-05-10T14:47:34.299Z,99.90
2023-05-10T14:50:03.654Z,99.90
2023-05-10T14:52:32.869Z,99.90
2023-05-10T14:55:04.143Z,99.90
2023-05-10T14:57:31.348Z,99.90
2023-05-10T14:59:58.413Z,99.90
2023-05-10T15:02:26.026Z,99.90
2023-05-10T15:04:53.501Z,99.90
2023-05-10T15:07:21.158Z,99.90
2023-05-10T15:09:48.282Z,99.90
2023-05-10T15:12:15.710Z,99.90
2023-05-10T15:14:42.902Z,99.90
2023-05-10T15:17:10.000Z,99.90
2023-05-10T15:19:37.285Z,99.90
2023-05-10T15:22:05.882Z,99.90
2023-05-10T15:24:33.234Z,99.90
2023-05-10T15:27:00.312Z,99.90
2023-05-10T15:29:27.562Z,99.90
2023-05-10T15:31:54.939Z,99.90
2023-05-10T15:34:21.971Z,99.90
2023-05-10T15:36:49.115Z,99.90
2023-05-10T15:39:17.160Z,99.90
2023-05-10T15:41:44.194Z,99.90
2023-05-10T15:44:12.195Z,99.90
2023-05-10T15:46:39.509Z,99.90
2023-05-10T15:49:07.827Z,99.90
2023-05-10T15:51:36.610Z,99.90
2023-05-10T15:54:07.678Z,99.90
2023-05-10T15:56:35.586Z,99.90
2023-05-10T15:59:04.037Z,99.90
2023-05-10T16:01:32.829Z,99.90
2023-05-10T16:04:01.306Z,99.90
2023-05-10T16:06:28.866Z,99.90
2023-05-10T16:08:56.689Z,99.90
2023-05-10T16:11:24.085Z,99.90
2023-05-10T16:13:51.454Z,99.90
2023-05-10T16:16:18.850Z,99.90
2023-05-10T16:18:48.348Z,99.90
2023-05-10T16:21:15.982Z,99.90
2023-05-10T16:23:43.710Z,99.90
2023-05-10T16:26:11.393Z,99.90
2023-05-10T16:28:40.043Z,99.90
2023-05-10T16:31:07.312Z,99.90
2023-05-10T16:33:34.448Z,99.90
2023-05-10T16:36:01.846Z,99.90
2023-05-10T16:38:29.264Z,99.90
2023-05-10T16:40:57.940Z,99.90
2023-05-10T16:43:26.084Z,99.90
2023-05-10T16:45:56.357Z,99.90
2023-05-10T16:48:24.258Z,99.90
2023-05-10T16:50:51.596Z,99.90
2023-05-10T16:53:18.839Z,99.90
2023-05-10T16:55:48.631Z,99.90
2023-05-10T16:58:18.405Z,99.90
2023-05-10T17:00:45.663Z,99.90
2023-05-10T17:03:13.060Z,99.90
2023-05-10T17:05:41.718Z,99.90
2023-05-10T17:08:10.781Z,99.90
2023-05-10T17:10:41.237Z,99.90
2023-05-10T17:13:10.371Z,99.90
2023-05-10T17:15:39.514Z,99.90
2023-05-10T17:18:08.177Z,99.90
2023-05-10T17:20:35.550Z,99.90
2023-05-10T17:23:03.636Z,99.90
2023-05-10T17:25:31.140Z,99.90
2023-05-10T17:27:58.844Z,99.90
2023-05-10T17:30:29.227Z,99.90
2023-05-10T17:32:56.944Z,99.90
2023-05-10T17:35:24.638Z,99.90
2023-05-10T17:37:52.372Z,99.90
2023-05-10T17:40:23.015Z,99.90
2023-05-10T17:42:50.436Z,99.90
2023-05-10T17:45:18.087Z,99.90
2023-05-10T17:47:46.079Z,99.90
2023-05-10T17:50:13.381Z,99.90
2023-05-10T17:52:40.738Z,99.90
2023-05-10T17:55:11.410Z,99.90
2023-05-10T17:57:39.279Z,99.90
2023-05-10T18:00:09.391Z,99.90
2023-05-10T18:02:37.160Z,99.90
2023-05-10T18:05:05.648Z,99.90
2023-05-10T18:07:33.079Z,99.90
2023-05-10T18:10:01.275Z,99.90
2023-05-10T18:12:28.851Z,99.90
2023-05-10T18:14:56.287Z,99.90
2023-05-10T18:17:23.869Z,99.90
2023-05-10T18:19:51.321Z,99.90
2023-05-10T18:22:18.852Z,99.90
2023-05-10T18:24:47.353Z,99.90
2023-05-10T18:27:14.524Z,99.90
2023-05-10T18:29:42.520Z,99.90
2023-05-10T18:32:09.848Z,99.90
2023-05-10T18:34:37.408Z,99.90
2023-05-10T18:37:08.019Z,99.90
2023-05-10T18:39:36.685Z,99.90
2023-05-10T18:42:07.558Z,99.90
2023-05-10T18:44:35.236Z,99.90
2023-05-10T18:47:04.894Z,99.90
2023-05-10T18:49:32.708Z,99.90
2023-05-10T18:52:00.216Z,99.90
2023-05-10T18:54:27.851Z,99.90
2023-05-10T18:56:55.699Z,99.90
2023-05-10T18:59:23.549Z,99.90
2023-05-10T19:01:51.376Z,99.90
2023-05-10T19:04:19.290Z,99.90
2023-05-10T19:06:46.889Z,99.90
2023-05-10T19:09:14.492Z,99.90
2023-05-10T19:11:43.745Z,99.90
2023-05-10T19:14:14.154Z,99.90
2023-05-10T19:16:42.967Z,99.90
2023-05-10T19:19:10.811Z,99.90
2023-05-10T19:21:40.221Z,99.90
2023-05-10T19:24:07.995Z,99.90
2023-05-10T19:26:36.618Z,99.90
2023-05-10T19:29:03.971Z,99.90
2023-05-10T19:31:34.862Z,99.90
2023-05-10T19:34:05.954Z,99.90
2023-05-10T19:36:34.860Z,99.90
2023-05-10T19:39:05.306Z,99.90
2023-05-10T19:41:34.891Z,99.90
2023-05-10T19:44:02.023Z,99.90
2023-05-10T19:46:29.482Z,99.90
2023-05-10T19:48:57.855Z,99.90
2023-05-10T19:51:25.552Z,99.90
2023-05-10T19:53:52.853Z,99.90
2023-05-10T19:56:20.232Z,99.90
2023-05-10T19:58:47.455Z,99.90
2023-05-10T20:01:15.078Z,99.90
2023-05-10T20:03:42.500Z,99.90
2023-05-10T20:06:10.384Z,99.90
2023-05-10T20:08:37.715Z,99.90
2023-05-10T20:11:05.485Z,99.90
2023-05-10T20:13:33.771Z,99.90
2023-05-10T20:16:02.531Z,99.90
2023-05-10T20:18:29.937Z,99.90
2023-05-10T20:20:59.405Z,99.90
2023-05-10T20:23:27.109Z,99.90
2023-05-10T20:25:58.843Z,99.90
2023-05-10T20:28:26.754Z,99.90
2023-05-10T20:30:55.704Z,99.90
2023-05-10T20:33:23.677Z,99.90
2023-05-10T20:35:52.543Z,99.90
2023-05-10T20:38:20.187Z,99.90
2023-05-10T20:40:47.476Z,99.90
2023-05-10T20:43:15.036Z,99.90
2023-05-10T20:45:42.769Z,99.90
2023-05-10T20:48:12.943Z,99.90
2023-05-10T20:50:41.373Z,99.90
2023-05-10T20:53:08.881Z,99.90
2023-05-10T20:55:36.345Z,99.90
2023-05-10T20:58:06.757Z,99.90
2023-05-10T21:00:34.743Z,99.90
2023-05-10T21:03:02.032Z,99.90
2023-05-10T21:05:29.453Z,99.90
2023-05-10T21:07:56.937Z,99.90
2023-05-10T21:10:25.965Z,99.90
2023-05-10T21:12:53.326Z,99.90
2023-05-10T21:15:20.642Z,99.90
2023-05-10T21:17:47.749Z,99.90
2023-05-10T21:20:15.504Z,99.90
2023-05-10T21:22:43.350Z,99.90
2023-05-10T21:25:10.987Z,99.90
2023-05-10T21:27:38.323Z,99.90
2023-05-10T21:30:06.689Z,99.90
2023-05-10T21:32:33.923Z,99.90
2023-05-10T21:35:01.577Z,99.90
2023-05-10T21:37:28.829Z,99.90
2023-05-10T21:39:56.217Z,99.90
2023-05-10T21:42:23.583Z,99.90
2023-05-10T21:44:50.737Z,99.90
2023-05-10T21:47:18.377Z,99.90
2023-05-10T21:49:45.724Z,99.90
2023-05-10T21:52:13.419Z,99.90
2023-05-10T21:54:40.727Z,99.90
2023-05-10T21:57:08.048Z,99.90
2023-05-10T21:59:35.489Z,99.90
2023-05-10T22:02:02.978Z,99.90
2023-05-10T22:04:30.482Z,99.90
2023-05-10T22:06:57.689Z,99.90
2023-05-10T22:09:25.614Z,99.90
2023-05-10T22:11:53.347Z,99.90
2023-05-10T22:14:20.891Z,99.90
2023-05-10T22:16:48.075Z,99.90
2023-05-10T22:19:15.562Z,99.90
2023-05-10T22:21:45.201Z,99.90
2023-05-10T22:24:13.174Z,99.90
2023-05-10T22:26:40.751Z,99.90
2023-05-10T22:29:07.886Z,99.90
2023-05-10T22:31:35.286Z,99.90
2023-05-10T22:34:05.395Z,99.90
2023-05-10T22:36:32.777Z,99.90
2023-05-10T22:39:01.782Z,99.90
2023-05-10T22:41:29.237Z,99.90
2023-05-10T22:43:56.702Z,99.90
2023-05-10T22:46:24.246Z,99.90
2023-05-10T22:48:51.699Z,99.90
2023-05-10T22:51:19.098Z,99.90
2023-05-10T22:53:46.742Z,99.90
2023-05-10T22:56:16.985Z,99.90
2023-05-10T22:58:44.529Z,99.90
2023-05-10T23:01:12.562Z,99.90
2023-05-10T23:03:40.455Z,99.90
2023-05-10T23:06:08.256Z,99.90
2023-05-10T23:08:35.846Z,99.90
2023-05-10T23:11:03.153Z,99.90
2023-05-10T23:13:30.789Z,99.90
2023-05-10T23:15:58.891Z,99.90
2023-05-10T23:18:26.743Z,99.90
2023-05-10T23:20:54.515Z,99.90
2023-05-10T23:23:22.954Z,99.90
2023-05-10T23:25:50.526Z,99.90
2023-05-10T23:28:18.337Z,99.90
2023-05-10T23:30:45.925Z,99.90
2023-05-10T23:33:14.622Z,99.90
2023-05-10T23:35:43.249Z,99.90
2023-05-10T23:38:11.245Z,99.90
2023-05-10T23:40:38.569Z,99.90
2023-05-10T23:43:05.970Z,99.90
2023-05-10T23:45:34.022Z,99.90
2023-05-10T23:48:01.895Z,99.90
2023-05-10T23:50:29.857Z,99.90
2023-05-10T23:52:57.217Z,99.90
2023-05-10T23:55:24.494Z,99.90
2023-05-10T23:57:51.901Z,99.90
